sensor_id;sensor_type;location;lat;lon;timestamp;pressure;altitude;pressure_sealevel;temperature;humidity
23677;BME280;31493;49.058;12.190;2022-08-23T00:01:17;96041.03;;;16.06;88.71
23677;BME280;31493;49.058;12.190;2022-08-23T00:03:45;96031.97;;;16.10;88.29
23677;BME280;31493;49.058;12.190;2022-08-23T00:06:12;96045.16;;;15.79;89.93
23677;BME280;31493;49.058;12.190;2022-08-23T00:08:41;96026.91;;;15.99;89.78
23677;BME280;31493;49.058;12.190;2022-08-23T00:11:24;96038.31;;;15.98;89.55
23677;BME280;31493;49.058;12.190;2022-08-23T00:13:52;96045.16;;;15.79;90.27
23677;BME280;31493;49.058;12.190;2022-08-23T00:16:19;96037.88;;;15.93;89.24
23677;BME280;31493;49.058;12.190;2022-08-23T00:18:46;96040.78;;;16.09;89.70
23677;BME280;31493;49.058;12.190;2022-08-23T00:21:13;96031.56;;;16.05;88.66
23677;BME280;31493;49.058;12.190;2022-08-23T00:23:42;96031.28;;;15.98;89.89
23677;BME280;31493;49.058;12.190;2022-08-23T00:26:10;96044.34;;;15.79;90.38
23677;BME280;31493;49.058;12.190;2022-08-23T00:28:37;96036.78;;;15.76;90.43
23677;BME280;31493;49.058;12.190;2022-08-23T00:31:05;96033.63;;;16.01;89.93
23677;BME280;31493;49.058;12.190;2022-08-23T00:33:32;96025.94;;;15.90;90.12
23677;BME280;31493;49.058;12.190;2022-08-23T00:36:00;96023.59;;;15.97;90.05
23677;BME280;31493;49.058;12.190;2022-08-23T00:38:27;96028.94;;;15.95;89.63
23677;BME280;31493;49.058;12.190;2022-08-23T00:40:55;96030.88;;;15.93;89.68
23677;BME280;31493;49.058;12.190;2022-08-23T00:43:26;96022.50;;;15.99;89.60
23677;BME280;31493;49.058;12.190;2022-08-23T00:46:19;96027.88;;;15.98;89.88
23677;BME280;31493;49.058;12.190;2022-08-23T00:49:10;96028.28;;;15.93;90.42
23677;BME280;31493;49.058;12.190;2022-08-23T00:51:42;96028.41;;;15.82;90.69
23677;BME280;31493;49.058;12.190;2022-08-23T00:54:13;96028.75;;;15.58;92.04
23677;BME280;31493;49.058;12.190;2022-08-23T00:56:43;96022.69;;;15.38;93.26
23677;BME280;31493;49.058;12.190;2022-08-23T00:59:11;96035.06;;;15.36;93.53
23677;BME280;31493;49.058;12.190;2022-08-23T01:01:38;96028.50;;;15.42;93.76
23677;BME280;31493;49.058;12.190;2022-08-23T01:04:06;96035.59;;;15.40;93.75
23677;BME280;31493;49.058;12.190;2022-08-23T01:06:38;96022.16;;;15.35;94.48
23677;BME280;31493;49.058;12.190;2022-08-23T01:09:11;96028.25;;;15.64;93.65
23677;BME280;31493;49.058;12.190;2022-08-23T01:11:41;96040.53;;;15.33;95.05
23677;BME280;31493;49.058;12.190;2022-08-23T01:14:16;96040.56;;;15.02;97.46
23677;BME280;31493;49.058;12.190;2022-08-23T01:16:46;96038.34;;;14.88;98.43
23677;BME280;31493;49.058;12.190;2022-08-23T01:19:22;96046.81;;;15.21;97.74
23677;BME280;31493;49.058;12.190;2022-08-23T01:21:54;96050.22;;;15.12;97.72
23677;BME280;31493;49.058;12.190;2022-08-23T01:24:25;96050.63;;;15.07;97.81
23677;BME280;31493;49.058;12.190;2022-08-23T01:26:52;96061.66;;;14.90;98.40
23677;BME280;31493;49.058;12.190;2022-08-23T01:29:19;96055.25;;;15.03;98.72
23677;BME280;31493;49.058;12.190;2022-08-23T01:31:46;96059.72;;;14.82;99.55
23677;BME280;31493;49.058;12.190;2022-08-23T01:34:15;96047.06;;;14.77;99.74
23677;BME280;31493;49.058;12.190;2022-08-23T01:36:43;96050.84;;;14.94;99.18
23677;BME280;31493;49.058;12.190;2022-08-23T01:39:10;96044.00;;;15.03;99.01
23677;BME280;31493;49.058;12.190;2022-08-23T01:41:40;96048.34;;;15.23;98.70
23677;BME280;31493;49.058;12.190;2022-08-23T01:44:07;96052.88;;;14.91;100.00
23677;BME280;31493;49.058;12.190;2022-08-23T01:46:34;96047.78;;;15.20;99.51
23677;BME280;31493;49.058;12.190;2022-08-23T01:49:02;96050.91;;;15.14;100.00
23677;BME280;31493;49.058;12.190;2022-08-23T01:51:30;96051.00;;;14.93;100.00
23677;BME280;31493;49.058;12.190;2022-08-23T01:53:58;96041.94;;;14.97;100.00
23677;BME280;31493;49.058;12.190;2022-08-23T01:56:25;96043.38;;;14.80;100.00
23677;BME280;31493;49.058;12.190;2022-08-23T01:58:54;96049.28;;;14.82;100.00
23677;BME280;31493;49.058;12.190;2022-08-23T02:01:21;96050.47;;;14.68;100.00
23677;BME280;31493;49.058;12.190;2022-08-23T02:03:48;96052.41;;;14.76;100.00
23677;BME280;31493;49.058;12.190;2022-08-23T02:06:15;96058.00;;;14.71;100.00
23677;BME280;31493;49.058;12.190;2022-08-23T02:08:42;96061.13;;;14.44;100.00
23677;BME280;31493;49.058;12.190;2022-08-23T02:11:31;96057.78;;;14.84;100.00
23677;BME280;31493;49.058;12.190;2022-08-23T02:14:01;96051.97;;;14.71;100.00
23677;BME280;31493;49.058;12.190;2022-08-23T02:16:31;96048.53;;;14.70;100.00
23677;BME280;31493;49.058;12.190;2022-08-23T02:18:59;96047.72;;;14.70;100.00
23677;BME280;31493;49.058;12.190;2022-08-23T02:21:27;96047.19;;;14.76;100.00
23677;BME280;31493;49.058;12.190;2022-08-23T02:23:55;96052.25;;;14.98;100.00
23677;BME280;31493;49.058;12.190;2022-08-23T02:26:23;96051.06;;;14.51;100.00
23677;BME280;31493;49.058;12.190;2022-08-23T02:28:50;96049.66;;;14.77;100.00
23677;BME280;31493;49.058;12.190;2022-08-23T02:31:19;96052.66;;;15.03;99.96
23677;BME280;31493;49.058;12.190;2022-08-23T02:33:46;96055.41;;;15.02;99.99
23677;BME280;31493;49.058;12.190;2022-08-23T02:36:14;96067.22;;;14.75;100.00
23677;BME280;31493;49.058;12.190;2022-08-23T02:38:42;96062.19;;;14.84;100.00
23677;BME280;31493;49.058;12.190;2022-08-23T02:41:09;96064.34;;;14.78;100.00
23677;BME280;31493;49.058;12.190;2022-08-23T02:43:37;96059.03;;;14.59;100.00
23677;BME280;31493;49.058;12.190;2022-08-23T02:46:05;96067.28;;;14.22;100.00
23677;BME280;31493;49.058;12.190;2022-08-23T02:48:35;96064.81;;;14.21;100.00
23677;BME280;31493;49.058;12.190;2022-08-23T02:51:05;96064.41;;;14.05;100.00
23677;BME280;31493;49.058;12.190;2022-08-23T02:53:33;96070.00;;;14.00;100.00
23677;BME280;31493;49.058;12.190;2022-08-23T02:56:01;96078.75;;;13.99;100.00
23677;BME280;31493;49.058;12.190;2022-08-23T02:58:28;96074.91;;;14.14;100.00
23677;BME280;31493;49.058;12.190;2022-08-23T03:00:55;96075.22;;;14.21;100.00
23677;BME280;31493;49.058;12.190;2022-08-23T03:03:23;96082.47;;;14.38;100.00
23677;BME280;31493;49.058;12.190;2022-08-23T03:05:52;96085.41;;;14.24;100.00
23677;BME280;31493;49.058;12.190;2022-08-23T03:08:22;96075.53;;;14.07;100.00
23677;BME280;31493;49.058;12.190;2022-08-23T03:10:50;96081.00;;;13.92;100.00
23677;BME280;31493;49.058;12.190;2022-08-23T03:13:19;96087.44;;;13.88;100.00
23677;BME280;31493;49.058;12.190;2022-08-23T03:15:46;96073.44;;;14.01;100.00
23677;BME280;31493;49.058;12.190;2022-08-23T03:18:13;96071.19;;;13.96;100.00
23677;BME280;31493;49.058;12.190;2022-08-23T03:20:42;96081.19;;;14.12;100.00
23677;BME280;31493;49.058;12.190;2022-08-23T03:23:11;96067.53;;;14.19;100.00
23677;BME280;31493;49.058;12.190;2022-08-23T03:25:38;96078.50;;;14.02;100.00
23677;BME280;31493;49.058;12.190;2022-08-23T03:28:06;96075.91;;;14.23;100.00
23677;BME280;31493;49.058;12.190;2022-08-23T03:30:33;96071.09;;;14.18;100.00
23677;BME280;31493;49.058;12.190;2022-08-23T03:33:01;96075.78;;;14.04;100.00
23677;BME280;31493;49.058;12.190;2022-08-23T03:35:28;96079.03;;;14.17;100.00
23677;BME280;31493;49.058;12.190;2022-08-23T03:37:56;96060.19;;;14.24;100.00
23677;BME280;31493;49.058;12.190;2022-08-23T03:40:24;96071.16;;;14.07;100.00
23677;BME280;31493;49.058;12.190;2022-08-23T03:42:51;96070.88;;;14.10;100.00
23677;BME280;31493;49.058;12.190;2022-08-23T03:45:19;96078.59;;;14.12;100.00
23677;BME280;31493;49.058;12.190;2022-08-23T03:47:46;96075.44;;;13.97;100.00
23677;BME280;31493;49.058;12.190;2022-08-23T03:50:13;96076.50;;;14.06;100.00
23677;BME280;31493;49.058;12.190;2022-08-23T03:52:40;96080.69;;;13.86;100.00
23677;BME280;31493;49.058;12.190;2022-08-23T03:55:08;96072.66;;;14.10;100.00
23677;BME280;31493;49.058;12.190;2022-08-23T03:57:36;96077.09;;;13.98;100.00
23677;BME280;31493;49.058;12.190;2022-08-23T04:00:04;96075.22;;;14.00;100.00
23677;BME280;31493;49.058;12.190;2022-08-23T04:02:32;96091.22;;;13.84;100.00
23677;BME280;31493;49.058;12.190;2022-08-23T04:04:59;96080.28;;;14.02;100.00
23677;BME280;31493;49.058;12.190;2022-08-23T04:07:26;96081.88;;;14.14;100.00
23677;BME280;31493;49.058;12.190;2022-08-23T04:09:54;96081.75;;;13.94;100.00
23677;BME280;31493;49.058;12.190;2022-08-23T04:12:21;96101.25;;;13.57;100.00
23677;BME280;31493;49.058;12.190;2022-08-23T04:14:49;96090.91;;;13.66;100.00
23677;BME280;31493;49.058;12.190;2022-08-23T04:17:18;96098.44;;;13.81;100.00
23677;BME280;31493;49.058;12.190;2022-08-23T04:19:46;96102.50;;;13.62;100.00
23677;BME280;31493;49.058;12.190;2022-08-23T04:22:16;96092.53;;;13.79;100.00
23677;BME280;31493;49.058;12.190;2022-08-23T04:24:45;96111.06;;;13.53;100.00
23677;BME280;31493;49.058;12.190;2022-08-23T04:27:12;96116.97;;;13.44;100.00
23677;BME280;31493;49.058;12.190;2022-08-23T04:29:40;96119.56;;;13.44;100.00
23677;BME280;31493;49.058;12.190;2022-08-23T04:32:09;96122.31;;;13.31;100.00
23677;BME280;31493;49.058;12.190;2022-08-23T04:34:37;96113.44;;;13.23;100.00
23677;BME280;31493;49.058;12.190;2022-08-23T04:37:07;96119.56;;;13.44;100.00
23677;BME280;31493;49.058;12.190;2022-08-23T04:39:35;96112.00;;;13.63;100.00
23677;BME280;31493;49.058;12.190;2022-08-23T04:42:24;96114.03;;;13.37;100.00
23677;BME280;31493;49.058;12.190;2022-08-23T04:44:50;96125.38;;;13.48;100.00
23677;BME280;31493;49.058;12.190;2022-08-23T04:47:19;96122.75;;;13.59;100.00
23677;BME280;31493;49.058;12.190;2022-08-23T04:49:46;96128.75;;;13.70;100.00
23677;BME280;31493;49.058;12.190;2022-08-23T04:52:13;96128.09;;;13.57;100.00
23677;BME280;31493;49.058;12.190;2022-08-23T04:54:40;96120.97;;;13.59;100.00
23677;BME280;31493;49.058;12.190;2022-08-23T04:57:07;96121.09;;;13.58;100.00
23677;BME280;31493;49.058;12.190;2022-08-23T04:59:34;96125.56;;;13.67;100.00
23677;BME280;31493;49.058;12.190;2022-08-23T05:02:02;96131.00;;;13.75;100.00
23677;BME280;31493;49.058;12.190;2022-08-23T05:04:30;96127.31;;;13.78;100.00
23677;BME280;31493;49.058;12.190;2022-08-23T05:06:57;96127.19;;;13.79;100.00
23677;BME280;31493;49.058;12.190;2022-08-23T05:09:24;96126.63;;;14.08;100.00
23677;BME280;31493;49.058;12.190;2022-08-23T05:11:51;96127.84;;;13.92;100.00
23677;BME280;31493;49.058;12.190;2022-08-23T05:14:18;96133.81;;;14.15;100.00
23677;BME280;31493;49.058;12.190;2022-08-23T05:16:45;96133.63;;;14.07;100.00
23677;BME280;31493;49.058;12.190;2022-08-23T05:19:12;96133.50;;;14.30;100.00
23677;BME280;31493;49.058;12.190;2022-08-23T05:21:41;96137.25;;;14.16;100.00
23677;BME280;31493;49.058;12.190;2022-08-23T05:24:08;96134.75;;;14.25;100.00
23677;BME280;31493;49.058;12.190;2022-08-23T05:26:36;96135.75;;;14.34;100.00
23677;BME280;31493;49.058;12.190;2022-08-23T05:29:03;96141.00;;;14.23;100.00
23677;BME280;31493;49.058;12.190;2022-08-23T05:31:30;96149.91;;;14.20;100.00
23677;BME280;31493;49.058;12.190;2022-08-23T05:33:57;96153.16;;;14.02;100.00
23677;BME280;31493;49.058;12.190;2022-08-23T05:36:24;96150.13;;;13.74;100.00
23677;BME280;31493;49.058;12.190;2022-08-23T05:38:53;96159.16;;;13.70;100.00
23677;BME280;31493;49.058;12.190;2022-08-23T05:41:20;96152.66;;;13.76;100.00
23677;BME280;31493;49.058;12.190;2022-08-23T05:43:47;96154.66;;;13.72;100.00
23677;BME280;31493;49.058;12.190;2022-08-23T05:46:18;96154.00;;;14.02;100.00
23677;BME280;31493;49.058;12.190;2022-08-23T05:48:47;96158.31;;;14.24;100.00
23677;BME280;31493;49.058;12.190;2022-08-23T05:51:15;96139.03;;;14.47;100.00
23677;BME280;31493;49.058;12.190;2022-08-23T05:53:43;96135.81;;;14.55;100.00
23677;BME280;31493;49.058;12.190;2022-08-23T05:56:15;96142.06;;;14.32;100.00
23677;BME280;31493;49.058;12.190;2022-08-23T05:58:43;96161.34;;;14.29;100.00
23677;BME280;31493;49.058;12.190;2022-08-23T06:01:12;96149.44;;;14.47;100.00
23677;BME280;31493;49.058;12.190;2022-08-23T06:03:40;96159.59;;;14.62;100.00
23677;BME280;31493;49.058;12.190;2022-08-23T06:06:08;96149.94;;;14.73;100.00
23677;BME280;31493;49.058;12.190;2022-08-23T06:08:36;96158.97;;;14.79;100.00
23677;BME280;31493;49.058;12.190;2022-08-23T06:11:07;96150.44;;;14.67;100.00
23677;BME280;31493;49.058;12.190;2022-08-23T06:13:40;96160.75;;;14.78;100.00
23677;BME280;31493;49.058;12.190;2022-08-23T06:16:09;96162.75;;;14.86;100.00
23677;BME280;31493;49.058;12.190;2022-08-23T06:18:36;96171.84;;;14.92;100.00
23677;BME280;31493;49.058;12.190;2022-08-23T06:21:05;96171.25;;;14.88;100.00
23677;BME280;31493;49.058;12.190;2022-08-23T06:23:33;96173.25;;;14.75;100.00
23677;BME280;31493;49.058;12.190;2022-08-23T06:26:00;96164.78;;;14.83;100.00
23677;BME280;31493;49.058;12.190;2022-08-23T06:28:28;96168.53;;;14.90;100.00
23677;BME280;31493;49.058;12.190;2022-08-23T06:30:58;96169.16;;;15.33;100.00
23677;BME280;31493;49.058;12.190;2022-08-23T06:33:25;96168.75;;;15.08;100.00
23677;BME280;31493;49.058;12.190;2022-08-23T06:36:01;96173.53;;;15.23;100.00
23677;BME280;31493;49.058;12.190;2022-08-23T06:38:29;96180.59;;;15.12;100.00
23677;BME280;31493;49.058;12.190;2022-08-23T06:41:01;96167.72;;;15.50;100.00
23677;BME280;31493;49.058;12.190;2022-08-23T06:43:28;96178.28;;;15.49;100.00
23677;BME280;31493;49.058;12.190;2022-08-23T06:46:09;96170.09;;;15.53;100.00
23677;BME280;31493;49.058;12.190;2022-08-23T06:48:37;96175.41;;;15.52;100.00
23677;BME280;31493;49.058;12.190;2022-08-23T06:51:09;96172.63;;;15.74;100.00
23677;BME280;31493;49.058;12.190;2022-08-23T06:53:36;96183.53;;;15.58;99.17
23677;BME280;31493;49.058;12.190;2022-08-23T06:56:04;96179.69;;;15.53;99.61
23677;BME280;31493;49.058;12.190;2022-08-23T06:58:31;96186.56;;;15.54;100.00
23677;BME280;31493;49.058;12.190;2022-08-23T07:01:09;96186.91;;;15.70;98.40
23677;BME280;31493;49.058;12.190;2022-08-23T07:03:37;96193.25;;;15.47;99.41
23677;BME280;31493;49.058;12.190;2022-08-23T07:06:04;96189.47;;;15.61;98.32
23677;BME280;31493;49.058;12.190;2022-08-23T07:08:32;96187.88;;;15.69;98.43
23677;BME280;31493;49.058;12.190;2022-08-23T07:10:59;96187.81;;;16.00;97.12
23677;BME280;31493;49.058;12.190;2022-08-23T07:13:26;96193.06;;;16.09;98.67
23677;BME280;31493;49.058;12.190;2022-08-23T07:15:56;96197.47;;;16.19;98.63
23677;BME280;31493;49.058;12.190;2022-08-23T07:18:25;96191.84;;;16.23;97.29
23677;BME280;31493;49.058;12.190;2022-08-23T07:20:55;96201.59;;;16.21;96.70
23677;BME280;31493;49.058;12.190;2022-08-23T07:23:23;96199.94;;;16.20;96.80
23677;BME280;31493;49.058;12.190;2022-08-23T07:25:50;96200.22;;;16.36;95.34
23677;BME280;31493;49.058;12.190;2022-08-23T07:28:17;96189.91;;;16.16;95.15
23677;BME280;31493;49.058;12.190;2022-08-23T07:30:45;96200.22;;;16.17;96.59
23677;BME280;31493;49.058;12.190;2022-08-23T07:33:12;96194.31;;;16.34;96.48
23677;BME280;31493;49.058;12.190;2022-08-23T07:35:47;96203.78;;;16.26;97.36
23677;BME280;31493;49.058;12.190;2022-08-23T07:38:15;96203.25;;;16.22;96.38
23677;BME280;31493;49.058;12.190;2022-08-23T07:40:43;96210.25;;;16.31;96.98
23677;BME280;31493;49.058;12.190;2022-08-23T07:43:11;96202.97;;;16.45;97.97
23677;BME280;31493;49.058;12.190;2022-08-23T07:45:39;96190.06;;;16.53;94.71
23677;BME280;31493;49.058;12.190;2022-08-23T07:48:08;96191.84;;;16.81;94.89
23677;BME280;31493;49.058;12.190;2022-08-23T07:50:36;96198.31;;;16.97;94.61
23677;BME280;31493;49.058;12.190;2022-08-23T07:53:06;96184.13;;;17.09;93.35
23677;BME280;31493;49.058;12.190;2022-08-23T07:55:33;96197.84;;;17.21;90.03
23677;BME280;31493;49.058;12.190;2022-08-23T07:58:00;96187.09;;;17.24;90.08
23677;BME280;31493;49.058;12.190;2022-08-23T08:00:27;96195.25;;;17.21;88.10
23677;BME280;31493;49.058;12.190;2022-08-23T08:02:54;96198.53;;;17.32;86.83
23677;BME280;31493;49.058;12.190;2022-08-23T08:05:21;96196.91;;;17.49;85.10
23677;BME280;31493;49.058;12.190;2022-08-23T08:07:48;96204.03;;;17.66;86.07
23677;BME280;31493;49.058;12.190;2022-08-23T08:10:17;96192.31;;;17.80;83.54
23677;BME280;31493;49.058;12.190;2022-08-23T08:12:44;96198.28;;;18.18;81.22
23677;BME280;31493;49.058;12.190;2022-08-23T08:15:11;96196.69;;;18.07;78.60
23677;BME280;31493;49.058;12.190;2022-08-23T08:17:38;96192.88;;;18.19;80.69
23677;BME280;31493;49.058;12.190;2022-08-23T08:20:06;96196.91;;;18.14;78.93
23677;BME280;31493;49.058;12.190;2022-08-23T08:22:33;96194.50;;;18.03;76.46
23677;BME280;31493;49.058;12.190;2022-08-23T08:25:01;96203.13;;;18.13;76.73
23677;BME280;31493;49.058;12.190;2022-08-23T08:27:29;96192.34;;;18.16;74.83
23677;BME280;31493;49.058;12.190;2022-08-23T08:29:57;96208.22;;;18.14;74.60
23677;BME280;31493;49.058;12.190;2022-08-23T08:32:24;96210.31;;;18.29;73.94
23677;BME280;31493;49.058;12.190;2022-08-23T08:34:51;96203.03;;;18.50;72.55
23677;BME280;31493;49.058;12.190;2022-08-23T08:37:18;96203.69;;;18.52;73.83
23677;BME280;31493;49.058;12.190;2022-08-23T08:39:45;96204.59;;;18.61;73.47
23677;BME280;31493;49.058;12.190;2022-08-23T08:42:40;96201.31;;;19.20;72.69
23677;BME280;31493;49.058;12.190;2022-08-23T08:45:12;96198.38;;;19.23;70.78
23677;BME280;31493;49.058;12.190;2022-08-23T08:47:45;96209.75;;;19.32;68.28
23677;BME280;31493;49.058;12.190;2022-08-23T08:50:19;96200.44;;;19.12;68.32
23677;BME280;31493;49.058;12.190;2022-08-23T08:52:50;96201.63;;;19.17;69.51
23677;BME280;31493;49.058;12.190;2022-08-23T08:55:24;96199.66;;;19.45;67.81
23677;BME280;31493;49.058;12.190;2022-08-23T08:57:53;96198.38;;;19.49;67.64
23677;BME280;31493;49.058;12.190;2022-08-23T09:00:23;96194.06;;;19.66;68.39
23677;BME280;31493;49.058;12.190;2022-08-23T09:02:51;96191.47;;;19.82;64.16
23677;BME280;31493;49.058;12.190;2022-08-23T09:05:22;96191.63;;;20.15;64.45
23677;BME280;31493;49.058;12.190;2022-08-23T09:08:01;96194.09;;;20.25;65.31
23677;BME280;31493;49.058;12.190;2022-08-23T09:10:51;96199.50;;;20.23;61.83
23677;BME280;31493;49.058;12.190;2022-08-23T09:13:57;96188.81;;;20.08;62.42
23677;BME280;31493;49.058;12.190;2022-08-23T09:16:46;96199.97;;;20.10;61.70
23677;BME280;31493;49.058;12.190;2022-08-23T09:19:16;96196.56;;;20.26;58.87
23677;BME280;31493;49.058;12.190;2022-08-23T09:21:46;96193.06;;;20.01;58.97
23677;BME280;31493;49.058;12.190;2022-08-23T09:24:14;96191.31;;;20.26;60.68
23677;BME280;31493;49.058;12.190;2022-08-23T09:26:43;96202.75;;;20.09;58.68
23677;BME280;31493;49.058;12.190;2022-08-23T09:29:18;96194.84;;;20.51;60.32
23677;BME280;31493;49.058;12.190;2022-08-23T09:31:48;96207.22;;;20.25;57.89
23677;BME280;31493;49.058;12.190;2022-08-23T09:34:19;96190.72;;;20.49;58.48
23677;BME280;31493;49.058;12.190;2022-08-23T09:36:47;96192.22;;;20.59;56.13
23677;BME280;31493;49.058;12.190;2022-08-23T09:39:26;96191.69;;;20.48;55.65
23677;BME280;31493;49.058;12.190;2022-08-23T09:41:55;96194.91;;;20.25;54.85
23677;BME280;31493;49.058;12.190;2022-08-23T09:44:35;96192.88;;;20.70;54.02
23677;BME280;31493;49.058;12.190;2022-08-23T09:47:08;96195.19;;;20.89;55.29
23677;BME280;31493;49.058;12.190;2022-08-23T09:49:38;96198.16;;;20.94;52.37
23677;BME280;31493;49.058;12.190;2022-08-23T09:52:13;96193.38;;;20.89;54.31
23677;BME280;31493;49.058;12.190;2022-08-23T09:54:54;96184.63;;;21.05;54.47
23677;BME280;31493;49.058;12.190;2022-08-23T09:57:25;96179.00;;;21.41;51.43
23677;BME280;31493;49.058;12.190;2022-08-23T09:59:55;96176.06;;;21.19;51.82
23677;BME280;31493;49.058;12.190;2022-08-23T10:02:28;96203.72;;;20.99;52.46
23677;BME280;31493;49.058;12.190;2022-08-23T10:04:59;96193.84;;;21.09;53.28
23677;BME280;31493;49.058;12.190;2022-08-23T10:07:33;96184.44;;;21.23;52.61
23677;BME280;31493;49.058;12.190;2022-08-23T10:10:24;96176.69;;;21.46;51.28
23677;BME280;31493;49.058;12.190;2022-08-23T10:12:54;96178.19;;;21.49;51.37
23677;BME280;31493;49.058;12.190;2022-08-23T10:15:34;96177.66;;;21.53;50.91
23677;BME280;31493;49.058;12.190;2022-08-23T10:18:10;96153.72;;;22.41;50.66
23677;BME280;31493;49.058;12.190;2022-08-23T10:20:46;96152.44;;;22.60;50.27
23677;BME280;31493;49.058;12.190;2022-08-23T10:23:24;96149.41;;;22.63;48.47
23677;BME280;31493;49.058;12.190;2022-08-23T10:25:58;96165.81;;;22.27;47.38
23677;BME280;31493;49.058;12.190;2022-08-23T10:28:38;96163.59;;;22.16;47.15
23677;BME280;31493;49.058;12.190;2022-08-23T10:31:33;96175.47;;;21.73;46.94
23677;BME280;31493;49.058;12.190;2022-08-23T10:34:15;96172.19;;;22.02;47.44
23677;BME280;31493;49.058;12.190;2022-08-23T10:36:57;96152.47;;;22.29;48.75
23677;BME280;31493;49.058;12.190;2022-08-23T10:39:27;96150.78;;;22.59;46.96
23677;BME280;31493;49.058;12.190;2022-08-23T10:42:00;96147.03;;;22.53;46.76
23677;BME280;31493;49.058;12.190;2022-08-23T10:44:33;96161.63;;;22.41;45.71
23677;BME280;31493;49.058;12.190;2022-08-23T10:47:15;96153.75;;;22.56;45.55
23677;BME280;31493;49.058;12.190;2022-08-23T10:49:49;96153.06;;;22.62;45.70
23677;BME280;31493;49.058;12.190;2022-08-23T10:52:49;96164.03;;;22.51;45.87
23677;BME280;31493;49.058;12.190;2022-08-23T10:55:45;96151.00;;;22.72;46.46
23677;BME280;31493;49.058;12.190;2022-08-23T10:58:30;96137.84;;;23.54;47.70
23677;BME280;31493;49.058;12.190;2022-08-23T11:00:59;96156.69;;;22.84;44.20
23677;BME280;31493;49.058;12.190;2022-08-23T11:03:31;96160.16;;;22.85;43.90
23677;BME280;31493;49.058;12.190;2022-08-23T11:09:08;96149.47;;;23.01;44.63
23677;BME280;31493;49.058;12.190;2022-08-23T11:11:42;96153.28;;;22.75;43.40
23677;BME280;31493;49.058;12.190;2022-08-23T11:14:24;96155.03;;;23.06;44.57
23677;BME280;31493;49.058;12.190;2022-08-23T11:16:57;96149.75;;;23.06;43.45
23677;BME280;31493;49.058;12.190;2022-08-23T11:19:49;96152.19;;;23.08;42.71
23677;BME280;31493;49.058;12.190;2022-08-23T11:22:18;96130.56;;;23.42;44.72
23677;BME280;31493;49.058;12.190;2022-08-23T11:24:53;96138.47;;;23.56;42.00
23677;BME280;31493;49.058;12.190;2022-08-23T11:27:28;96143.94;;;23.25;42.12
23677;BME280;31493;49.058;12.190;2022-08-23T11:29:56;96137.41;;;23.21;43.06
23677;BME280;31493;49.058;12.190;2022-08-23T11:32:34;96143.13;;;23.25;42.82
23677;BME280;31493;49.058;12.190;2022-08-23T11:35:09;96132.38;;;23.56;41.39
23677;BME280;31493;49.058;12.190;2022-08-23T11:37:50;96123.47;;;23.72;42.70
23677;BME280;31493;49.058;12.190;2022-08-23T11:40:36;96126.00;;;23.80;41.30
23677;BME280;31493;49.058;12.190;2022-08-23T11:43:07;96137.84;;;23.54;41.56
23677;BME280;31493;49.058;12.190;2022-08-23T11:45:43;96132.41;;;23.71;41.93
23677;BME280;31493;49.058;12.190;2022-08-23T11:48:15;96114.31;;;24.25;42.65
23677;BME280;31493;49.058;12.190;2022-08-23T11:51:10;96131.97;;;24.03;39.81
23677;BME280;31493;49.058;12.190;2022-08-23T11:53:57;96135.56;;;23.81;40.69
23677;BME280;31493;49.058;12.190;2022-08-23T11:56:45;96133.38;;;23.84;40.52
23677;BME280;31493;49.058;12.190;2022-08-23T11:59:34;96122.09;;;24.12;40.33
23677;BME280;31493;49.058;12.190;2022-08-23T12:02:31;96131.59;;;23.70;40.24
23677;BME280;31493;49.058;12.190;2022-08-23T12:05:00;96129.41;;;24.10;40.96
23677;BME280;31493;49.058;12.190;2022-08-23T12:07:51;96137.94;;;23.91;40.79
23677;BME280;31493;49.058;12.190;2022-08-23T12:10:28;96107.16;;;24.62;41.85
23677;BME280;31493;49.058;12.190;2022-08-23T12:13:32;96121.59;;;24.38;39.55
23677;BME280;31493;49.058;12.190;2022-08-23T12:16:26;96130.03;;;24.12;40.35
23677;BME280;31493;49.058;12.190;2022-08-23T12:18:56;96118.94;;;24.59;38.47
23677;BME280;31493;49.058;12.190;2022-08-23T12:21:28;96139.56;;;23.92;38.45
23677;BME280;31493;49.058;12.190;2022-08-23T12:24:01;96137.66;;;23.85;39.23
23677;BME280;31493;49.058;12.190;2022-08-23T12:26:44;96132.19;;;24.23;38.70
23677;BME280;31493;49.058;12.190;2022-08-23T12:29:22;96105.22;;;24.99;38.71
23677;BME280;31493;49.058;12.190;2022-08-23T12:31:57;96126.97;;;24.30;37.73
23677;BME280;31493;49.058;12.190;2022-08-23T12:34:33;96120.97;;;24.85;37.96
23677;BME280;31493;49.058;12.190;2022-08-23T12:37:09;96128.38;;;24.11;37.93
23677;BME280;31493;49.058;12.190;2022-08-23T12:39:49;96134.81;;;24.23;36.58
23677;BME280;31493;49.058;12.190;2022-08-23T12:42:19;96115.13;;;24.90;37.57
23677;BME280;31493;49.058;12.190;2022-08-23T12:44:59;96091.63;;;25.78;37.67
23677;BME280;31493;49.058;12.190;2022-08-23T12:47:27;96091.06;;;25.95;38.23
23677;BME280;31493;49.058;12.190;2022-08-23T12:49:57;96107.22;;;25.18;36.83
23677;BME280;31493;49.058;12.190;2022-08-23T12:52:27;96105.00;;;24.72;39.62
23677;BME280;31493;49.058;12.190;2022-08-23T12:54:56;96100.41;;;25.43;39.17
23677;BME280;31493;49.058;12.190;2022-08-23T12:57:31;96104.75;;;25.58;39.17
23677;BME280;31493;49.058;12.190;2022-08-23T13:00:10;96099.44;;;24.88;39.63
23677;BME280;31493;49.058;12.190;2022-08-23T13:02:46;96109.22;;;24.66;40.83
23677;BME280;31493;49.058;12.190;2022-08-23T13:05:20;96098.72;;;25.01;40.93
23677;BME280;31493;49.058;12.190;2022-08-23T13:07:52;96113.94;;;24.71;40.13
23677;BME280;31493;49.058;12.190;2022-08-23T13:10:21;96097.53;;;25.38;39.68